sensor_id;sensor_type;location;lat;lon;timestamp;pressure;altitude;pressure_sealevel;temperature;humidity
41254;BME280;26987;59.928;30.306;2024-02-14T00:00:32;102237.00;;;-13.52;98.44
41254;BME280;26987;59.928;30.306;2024-02-14T00:03:00;102211.31;;;-13.68;98.31
41254;BME280;26987;59.928;30.306;2024-02-14T00:05:29;102257.50;;;-13.42;98.69
41254;BME280;26987;59.928;30.306;2024-02-14T00:07:57;102242.06;;;-13.46;98.98
41254;BME280;26987;59.928;30.306;2024-02-14T00:10:25;102247.19;;;-13.42;98.90
41254;BME280;26987;59.928;30.306;2024-02-14T00:12:53;102229.25;;;-13.52;98.85
41254;BME280;26987;59.928;30.306;2024-02-14T00:15:26;102248.03;;;-13.41;98.58
41254;BME280;26987;59.928;30.306;2024-02-14T00:17:54;102246.34;;;-13.42;98.54
41254;BME280;26987;59.928;30.306;2024-02-14T00:20:22;102256.63;;;-13.39;97.98
41254;BME280;26987;59.928;30.306;2024-02-14T00:22:58;102240.41;;;-13.50;98.29
41254;BME280;26987;59.928;30.306;2024-02-14T00:25:26;102172.84;;;-13.93;97.88
41254;BME280;26987;59.928;30.306;2024-02-14T00:27:55;102239.66;;;-13.62;97.83
41254;BME280;26987;59.928;30.306;2024-02-14T00:30:24;102248.16;;;-13.50;97.81
41254;BME280;26987;59.928;30.306;2024-02-14T00:33:26;102229.34;;;-13.65;97.82
41254;BME280;26987;59.928;30.306;2024-02-14T00:35:54;102244.75;;;-13.52;98.53
41254;BME280;26987;59.928;30.306;2024-02-14T00:38:22;102247.25;;;-13.48;98.18
41254;BME280;26987;59.928;30.306;2024-02-14T00:40:53;102212.22;;;-13.71;98.18
41254;BME280;26987;59.928;30.306;2024-02-14T00:43:20;102248.09;;;-13.47;97.88
41254;BME280;26987;59.928;30.306;2024-02-14T00:45:48;102245.59;;;-13.55;98.62
41254;BME280;26987;59.928;30.306;2024-02-14T00:48:16;102254.09;;;-13.45;98.20
41254;BME280;26987;59.928;30.306;2024-02-14T00:50:46;102251.53;;;-13.45;97.94
41254;BME280;26987;59.928;30.306;2024-02-14T00:53:14;102235.19;;;-13.49;97.83
41254;BME280;26987;59.928;30.306;2024-02-14T00:55:42;102244.63;;;-13.46;97.12
41254;BME280;26987;59.928;30.306;2024-02-14T00:58:10;102256.72;;;-13.48;97.14
41254;BME280;26987;59.928;30.306;2024-02-14T01:00:37;102243.06;;;-13.60;97.32
41254;BME280;26987;59.928;30.306;2024-02-14T01:03:06;102252.38;;;-13.46;97.57
41254;BME280;26987;59.928;30.306;2024-02-14T01:05:36;102238.63;;;-13.45;97.53
41254;BME280;26987;59.928;30.306;2024-02-14T01:08:05;102238.69;;;-13.51;97.13
41254;BME280;26987;59.928;30.306;2024-02-14T01:10:34;102248.97;;;-13.48;96.59
41254;BME280;26987;59.928;30.306;2024-02-14T01:13:02;102249.91;;;-13.52;96.77
41254;BME280;26987;59.928;30.306;2024-02-14T01:15:30;102238.75;;;-13.56;96.76
41254;BME280;26987;59.928;30.306;2024-02-14T01:17:58;102241.22;;;-13.48;96.72
41254;BME280;26987;59.928;30.306;2024-02-14T01:20:26;102245.59;;;-13.52;96.45
41254;BME280;26987;59.928;30.306;2024-02-14T01:22:54;102250.69;;;-13.47;96.98
41254;BME280;26987;59.928;30.306;2024-02-14T01:25:27;102242.03;;;-13.45;96.39
41254;BME280;26987;59.928;30.306;2024-02-14T01:27:55;102243.84;;;-13.50;96.50
41254;BME280;26987;59.928;30.306;2024-02-14T01:30:23;102249.88;;;-13.49;96.55
41254;BME280;26987;59.928;30.306;2024-02-14T01:32:51;102248.09;;;-13.47;96.71
41254;BME280;26987;59.928;30.306;2024-02-14T01:35:20;102233.56;;;-13.56;95.80
41254;BME280;26987;59.928;30.306;2024-02-14T01:37:50;102256.72;;;-13.47;96.26
41254;BME280;26987;59.928;30.306;2024-02-14T01:40:21;102247.19;;;-13.45;96.36
41254;BME280;26987;59.928;30.306;2024-02-14T01:42:57;102246.44;;;-13.51;96.43
41254;BME280;26987;59.928;30.306;2024-02-14T01:45:25;102261.91;;;-13.50;96.12
41254;BME280;26987;59.928;30.306;2024-02-14T01:48:00;102250.69;;;-13.49;96.38
41254;BME280;26987;59.928;30.306;2024-02-14T01:50:29;102245.50;;;-13.47;96.01
41254;BME280;26987;59.928;30.306;2024-02-14T01:52:58;102249.78;;;-13.46;95.98
41254;BME280;26987;59.928;30.306;2024-02-14T01:55:28;102249.78;;;-13.46;95.58
41254;BME280;26987;59.928;30.306;2024-02-14T01:57:57;102249.78;;;-13.43;95.39
41254;BME280;26987;59.928;30.306;2024-02-14T02:00:25;102238.75;;;-13.56;95.65
41254;BME280;26987;59.928;30.306;2024-02-14T02:02:55;102253.34;;;-13.53;95.53
41254;BME280;26987;59.928;30.306;2024-02-14T02:05:23;102249.06;;;-13.54;95.42
41254;BME280;26987;59.928;30.306;2024-02-14T02:07:51;102238.75;;;-13.56;95.31
41254;BME280;26987;59.928;30.306;2024-02-14T02:10:20;102243.88;;;-13.54;95.43
41254;BME280;26987;59.928;30.306;2024-02-14T02:13:14;102224.97;;;-13.58;95.50
41254;BME280;26987;59.928;30.306;2024-02-14T02:16:02;102232.59;;;-13.47;95.13
41254;BME280;26987;59.928;30.306;2024-02-14T02:18:51;102241.28;;;-13.51;95.54
41254;BME280;26987;59.928;30.306;2024-02-14T02:21:39;102232.59;;;-13.47;95.05
41254;BME280;26987;59.928;30.306;2024-02-14T02:24:10;102238.63;;;-13.47;95.21
41254;BME280;26987;59.928;30.306;2024-02-14T02:26:39;102242.13;;;-13.49;94.85
41254;BME280;26987;59.928;30.306;2024-02-14T02:29:26;102220.66;;;-13.53;94.74
41254;BME280;26987;59.928;30.306;2024-02-14T02:31:55;102240.34;;;-13.47;94.44
41254;BME280;26987;59.928;30.306;2024-02-14T02:34:23;102235.19;;;-13.49;94.48
41254;BME280;26987;59.928;30.306;2024-02-14T02:36:52;102233.47;;;-13.48;94.53
41254;BME280;26987;59.928;30.306;2024-02-14T02:39:40;102226.56;;;-13.45;94.15
41254;BME280;26987;59.928;30.306;2024-02-14T02:42:28;102165.88;;;-13.85;93.80
41254;BME280;26987;59.928;30.306;2024-02-14T02:45:15;102227.44;;;-13.47;93.49
41254;BME280;26987;59.928;30.306;2024-02-14T02:48:04;102211.22;;;-13.56;94.19
41254;BME280;26987;59.928;30.306;2024-02-14T02:50:52;102184.66;;;-13.70;93.95
41254;BME280;26987;59.928;30.306;2024-02-14T02:53:38;102188.97;;;-13.69;93.44
41254;BME280;26987;59.928;30.306;2024-02-14T02:56:28;102194.09;;;-13.66;93.34
41254;BME280;26987;59.928;30.306;2024-02-14T02:58:56;102220.66;;;-13.54;93.57
41254;BME280;26987;59.928;30.306;2024-02-14T03:01:35;102212.03;;;-13.52;93.69
41254;BME280;26987;59.928;30.306;2024-02-14T03:04:23;102215.53;;;-13.58;93.65
41254;BME280;26987;59.928;30.306;2024-02-14T03:07:12;102215.50;;;-13.54;93.49
41254;BME280;26987;59.928;30.306;2024-02-14T03:10:00;102051.28;;;-14.54;93.34
41254;BME280;26987;59.928;30.306;2024-02-14T03:12:53;102229.22;;;-13.49;93.41
41254;BME280;26987;59.928;30.306;2024-02-14T03:15:41;102225.81;;;-13.53;92.97
41254;BME280;26987;59.928;30.306;2024-02-14T03:18:10;102213.81;;;-13.57;92.87
41254;BME280;26987;59.928;30.306;2024-02-14T03:20:38;102212.94;;;-13.56;92.97
41254;BME280;26987;59.928;30.306;2024-02-14T03:23:06;102222.34;;;-13.50;92.87
41254;BME280;26987;59.928;30.306;2024-02-14T03:25:34;102225.81;;;-13.54;92.81
41254;BME280;26987;59.928;30.306;2024-02-14T03:28:05;102221.50;;;-13.51;93.30
41254;BME280;26987;59.928;30.306;2024-02-14T03:30:36;102229.25;;;-13.52;92.50
41254;BME280;26987;59.928;30.306;2024-02-14T03:33:05;102229.28;;;-13.54;92.45
41254;BME280;26987;59.928;30.306;2024-02-14T03:35:34;102241.22;;;-13.48;92.71
41254;BME280;26987;59.928;30.306;2024-02-14T03:38:05;102247.31;;;-13.49;92.18
41254;BME280;26987;59.928;30.306;2024-02-14T03:40:34;102245.50;;;-13.46;92.48
41254;BME280;26987;59.928;30.306;2024-02-14T03:43:05;102243.81;;;-13.48;92.26
41254;BME280;26987;59.928;30.306;2024-02-14T03:45:37;102242.09;;;-13.48;91.82
41254;BME280;26987;59.928;30.306;2024-02-14T03:48:06;102241.31;;;-13.54;92.73
41254;BME280;26987;59.928;30.306;2024-02-14T03:50:34;102220.75;;;-13.65;92.29
41254;BME280;26987;59.928;30.306;2024-02-14T03:53:02;102254.91;;;-13.40;91.84
41254;BME280;26987;59.928;30.306;2024-02-14T03:55:32;102253.19;;;-13.38;92.05
41254;BME280;26987;59.928;30.306;2024-02-14T03:58:01;102249.66;;;-13.31;92.17
41254;BME280;26987;59.928;30.306;2024-02-14T04:00:31;102254.81;;;-13.27;91.41
41254;BME280;26987;59.928;30.306;2024-02-14T04:03:02;102247.09;;;-13.31;91.66
41254;BME280;26987;59.928;30.306;2024-02-14T04:05:30;102247.91;;;-13.24;91.16
41254;BME280;26987;59.928;30.306;2024-02-14T04:07:58;102252.97;;;-13.16;90.97
41254;BME280;26987;59.928;30.306;2024-02-14T04:10:26;102257.28;;;-13.15;90.99
41254;BME280;26987;59.928;30.306;2024-02-14T04:12:53;102238.41;;;-13.23;91.02
41254;BME280;26987;59.928;30.306;2024-02-14T04:15:21;102265.81;;;-13.08;90.23
41254;BME280;26987;59.928;30.306;2024-02-14T04:17:54;102253.78;;;-13.11;90.40
41254;BME280;26987;59.928;30.306;2024-02-14T04:20:21;102218.69;;;-13.31;90.68
41254;BME280;26987;59.928;30.306;2024-02-14T04:22:50;102247.69;;;-13.05;89.76
41254;BME280;26987;59.928;30.306;2024-02-14T04:25:18;102248.56;;;-13.06;89.86
41254;BME280;26987;59.928;30.306;2024-02-14T04:27:45;102252.88;;;-13.07;89.70
41254;BME280;26987;59.928;30.306;2024-02-14T04:30:13;102242.47;;;-13.00;90.12
41254;BME280;26987;59.928;30.306;2024-02-14T04:33:02;102221.13;;;-13.17;89.54
41254;BME280;26987;59.928;30.306;2024-02-14T04:35:31;102242.53;;;-13.07;89.52
41254;BME280;26987;59.928;30.306;2024-02-14T04:38:00;102255.38;;;-12.99;88.68
41254;BME280;26987;59.928;30.306;2024-02-14T04:40:29;102241.81;;;-13.20;89.32
41254;BME280;26987;59.928;30.306;2024-02-14T04:42:57;102239.94;;;-13.05;88.34
41254;BME280;26987;59.928;30.306;2024-02-14T04:45:24;102258.97;;;-13.12;88.69
41254;BME280;26987;59.928;30.306;2024-02-14T04:48:03;102222.97;;;-13.31;89.36
41254;BME280;26987;59.928;30.306;2024-02-14T04:50:30;102258.97;;;-13.14;89.08
41254;BME280;26987;59.928;30.306;2024-02-14T04:53:01;102245.31;;;-13.24;88.99
41254;BME280;26987;59.928;30.306;2024-02-14T04:55:29;102250.38;;;-13.16;88.52
41254;BME280;26987;59.928;30.306;2024-02-14T04:57:57;102250.47;;;-13.22;89.02
41254;BME280;26987;59.928;30.306;2024-02-14T05:00:25;102196.59;;;-13.57;88.78
41254;BME280;26987;59.928;30.306;2024-02-14T05:02:53;102236.00;;;-13.39;89.04
41254;BME280;26987;59.928;30.306;2024-02-14T05:05:23;102253.91;;;-13.23;89.00
41254;BME280;26987;59.928;30.306;2024-02-14T05:07:54;102246.16;;;-13.23;89.12
41254;BME280;26987;59.928;30.306;2024-02-14T05:10:22;102256.50;;;-13.26;88.87
41254;BME280;26987;59.928;30.306;2024-02-14T05:12:50;102245.41;;;-13.33;88.97
41254;BME280;26987;59.928;30.306;2024-02-14T05:15:18;102262.53;;;-13.26;89.05
41254;BME280;26987;59.928;30.306;2024-02-14T05:17:46;102242.84;;;-13.38;89.06
41254;BME280;26987;59.928;30.306;2024-02-14T05:20:14;102268.53;;;-13.22;89.30
41254;BME280;26987;59.928;30.306;2024-02-14T05:22:44;102243.59;;;-13.26;88.75
41254;BME280;26987;59.928;30.306;2024-02-14T05:25:12;102234.06;;;-13.18;88.20
41254;BME280;26987;59.928;30.306;2024-02-14T05:27:52;102258.22;;;-13.22;87.96
41254;BME280;26987;59.928;30.306;2024-02-14T05:30:19;102276.16;;;-13.13;87.98
41254;BME280;26987;59.928;30.306;2024-02-14T05:32:58;102278.72;;;-13.10;88.09
41254;BME280;26987;59.928;30.306;2024-02-14T05:35:27;102279.59;;;-13.09;88.63
41254;BME280;26987;59.928;30.306;2024-02-14T05:37:56;102282.06;;;-12.97;88.16
41254;BME280;26987;59.928;30.306;2024-02-14T05:40:24;102241.72;;;-13.10;88.30
41254;BME280;26987;59.928;30.306;2024-02-14T05:42:52;102286.97;;;-12.73;88.03
41254;BME280;26987;59.928;30.306;2024-02-14T05:45:20;102288.66;;;-12.71;87.47
41254;BME280;26987;59.928;30.306;2024-02-14T05:47:48;102278.34;;;-12.72;86.82
41254;BME280;26987;59.928;30.306;2024-02-14T05:50:16;102280.91;;;-12.71;86.64
41254;BME280;26987;59.928;30.306;2024-02-14T05:52:43;102285.09;;;-12.60;86.63
41254;BME280;26987;59.928;30.306;2024-02-14T05:55:13;102281.00;;;-12.78;86.46
41254;BME280;26987;59.928;30.306;2024-02-14T05:57:50;102279.16;;;-12.69;86.05
41254;BME280;26987;59.928;30.306;2024-02-14T06:00:26;102221.84;;;-13.03;85.97
41254;BME280;26987;59.928;30.306;2024-02-14T06:02:54;102273.25;;;-12.78;86.32
41254;BME280;26987;59.928;30.306;2024-02-14T06:05:27;102286.84;;;-12.62;86.37
41254;BME280;26987;59.928;30.306;2024-02-14T06:07:55;102252.66;;;-12.85;85.72
41254;BME280;26987;59.928;30.306;2024-02-14T06:10:24;102286.78;;;-12.56;85.75
41254;BME280;26987;59.928;30.306;2024-02-14T06:12:55;102283.25;;;-12.50;85.41
41254;BME280;26987;59.928;30.306;2024-02-14T06:15:23;102285.84;;;-12.49;85.32
41254;BME280;26987;59.928;30.306;2024-02-14T06:17:52;102249.84;;;-12.68;85.02
41254;BME280;26987;59.928;30.306;2024-02-14T06:20:20;102283.94;;;-12.37;84.71
41254;BME280;26987;59.928;30.306;2024-02-14T06:22:49;102278.66;;;-12.26;84.24
41254;BME280;26987;59.928;30.306;2024-02-14T06:25:17;102288.00;;;-12.18;84.65
41254;BME280;26987;59.928;30.306;2024-02-14T06:27:57;102283.63;;;-12.11;84.92
41254;BME280;26987;59.928;30.306;2024-02-14T06:30:25;102268.97;;;-12.12;84.62
41254;BME280;26987;59.928;30.306;2024-02-14T06:32:53;102284.16;;;-11.90;83.78
41254;BME280;26987;59.928;30.306;2024-02-14T06:35:20;102283.22;;;-11.84;83.05
41254;BME280;26987;59.928;30.306;2024-02-14T06:37:54;102293.56;;;-11.84;83.13
41254;BME280;26987;59.928;30.306;2024-02-14T06:40:22;102281.53;;;-11.87;82.54
41254;BME280;26987;59.928;30.306;2024-02-14T06:42:49;102291.88;;;-11.87;82.35
41254;BME280;26987;59.928;30.306;2024-02-14T06:45:19;102301.25;;;-11.80;82.63
41254;BME280;26987;59.928;30.306;2024-02-14T06:47:58;102298.69;;;-11.81;82.00
41254;BME280;26987;59.928;30.306;2024-02-14T06:50:26;102279.91;;;-11.93;82.00
41254;BME280;26987;59.928;30.306;2024-02-14T06:52:55;102285.91;;;-11.92;81.85
41254;BME280;26987;59.928;30.306;2024-02-14T06:55:26;102275.56;;;-11.92;82.53
41254;BME280;26987;59.928;30.306;2024-02-14T06:57:54;102277.06;;;-11.79;82.06
41254;BME280;26987;59.928;30.306;2024-02-14T07:00:23;102278.66;;;-11.70;81.66
41254;BME280;26987;59.928;30.306;2024-02-14T07:02:51;102289.66;;;-11.54;81.26
41254;BME280;26987;59.928;30.306;2024-02-14T07:05:19;102266.44;;;-11.60;80.49
41254;BME280;26987;59.928;30.306;2024-02-14T07:07:47;102275.03;;;-11.58;80.35
41254;BME280;26987;59.928;30.306;2024-02-14T07:10:15;102277.41;;;-11.44;80.76
41254;BME280;26987;59.928;30.306;2024-02-14T07:12:43;102284.13;;;-11.33;80.30
41254;BME280;26987;59.928;30.306;2024-02-14T07:15:11;102287.53;;;-11.30;80.40
41254;BME280;26987;59.928;30.306;2024-02-14T07:17:40;102285.59;;;-11.18;79.86
41254;BME280;26987;59.928;30.306;2024-02-14T07:20:09;102283.19;;;-11.29;79.37
41254;BME280;26987;59.928;30.306;2024-02-14T07:22:37;102280.56;;;-11.28;79.48
41254;BME280;26987;59.928;30.306;2024-02-14T07:25:05;102293.31;;;-11.15;79.84
41254;BME280;26987;59.928;30.306;2024-02-14T07:27:34;102278.75;;;-11.21;78.98
41254;BME280;26987;59.928;30.306;2024-02-14T07:30:02;102282.03;;;-11.12;78.58
41254;BME280;26987;59.928;30.306;2024-02-14T07:32:32;102276.78;;;-11.08;78.20
41254;BME280;26987;59.928;30.306;2024-02-14T07:35:03;102273.44;;;-11.13;78.24
41254;BME280;26987;59.928;30.306;2024-02-14T07:37:33;102294.59;;;-10.89;78.32
41254;BME280;26987;59.928;30.306;2024-02-14T07:40:01;102293.56;;;-10.80;77.88
41254;BME280;26987;59.928;30.306;2024-02-14T07:42:31;102287.34;;;-10.71;77.91
41254;BME280;26987;59.928;30.306;2024-02-14T07:44:59;102290.59;;;-10.61;76.55
41254;BME280;26987;59.928;30.306;2024-02-14T07:47:31;102283.03;;;-10.71;76.53
41254;BME280;26987;59.928;30.306;2024-02-14T07:49:59;102263.41;;;-10.84;76.42
41254;BME280;26987;59.928;30.306;2024-02-14T07:52:28;102276.19;;;-10.77;77.30
41254;BME280;26987;59.928;30.306;2024-02-14T07:54:57;102283.03;;;-10.71;76.71
41254;BME280;26987;59.928;30.306;2024-02-14T07:57:25;102282.09;;;-10.68;76.96
41254;BME280;26987;59.928;30.306;2024-02-14T07:59:54;102287.06;;;-10.57;76.87
41254;BME280;26987;59.928;30.306;2024-02-14T08:02:21;102291.44;;;-10.59;75.95
41254;BME280;26987;59.928;30.306;2024-02-14T08:04:49;102295.75;;;-10.60;75.67
41254;BME280;26987;59.928;30.306;2024-02-14T08:07:17;102277.00;;;-10.73;75.49
41254;BME280;26987;59.928;30.306;2024-02-14T08:09:47;102294.69;;;-10.49;76.27
41254;BME280;26987;59.928;30.306;2024-02-14T08:12:15;102279.94;;;-10.47;75.62
41254;BME280;26987;59.928;30.306;2024-02-14T08:14:45;102289.91;;;-10.29;74.25
41254;BME280;26987;59.928;30.306;2024-02-14T08:17:14;102290.94;;;-10.38;73.86
41254;BME280;26987;59.928;30.306;2024-02-14T08:19:42;102277.19;;;-10.41;73.51
41254;BME280;26987;59.928;30.306;2024-02-14T08:22:09;102293.53;;;-10.38;73.73
41254;BME280;26987;59.928;30.306;2024-02-14T08:24:38;102289.84;;;-10.26;73.80
41254;BME280;26987;59.928;30.306;2024-02-14T08:27:08;102299.06;;;-10.10;73.69
41254;BME280;26987;59.928;30.306;2024-02-14T08:29:36;102293.91;;;-10.12;72.77
41254;BME280;26987;59.928;30.306;2024-02-14T08:32:04;102303.44;;;-10.14;72.59
41254;BME280;26987;59.928;30.306;2024-02-14T08:34:32;102312.88;;;-10.10;72.54
41254;BME280;26987;59.928;30.306;2024-02-14T08:37:00;102309.47;;;-10.12;72.33
41254;BME280;26987;59.928;30.306;2024-02-14T08:39:28;102316.31;;;-10.09;72.33
41254;BME280;26987;59.928;30.306;2024-02-14T08:41:56;102304.38;;;-10.17;72.39
41254;BME280;26987;59.928;30.306;2024-02-14T08:44:25;102309.50;;;-10.14;72.33
41254;BME280;26987;59.928;30.306;2024-02-14T08:46:54;102293.06;;;-10.14;72.59
41254;BME280;26987;59.928;30.306;2024-02-14T08:49:21;102295.56;;;-10.09;71.86
41254;BME280;26987;59.928;30.306;2024-02-14T08:51:49;102289.53;;;-10.11;72.40
41254;BME280;26987;59.928;30.306;2024-02-14T08:54:17;102298.72;;;-9.96;72.55
41254;BME280;26987;59.928;30.306;2024-02-14T08:56:46;102291.38;;;-10.15;71.34
41254;BME280;26987;59.928;30.306;2024-02-14T08:59:15;102308.38;;;-10.02;71.52
41254;BME280;26987;59.928;30.306;2024-02-14T09:01:44;102311.72;;;-9.96;71.51
41254;BME280;26987;59.928;30.306;2024-02-14T09:04:12;102298.91;;;-10.04;71.73
41254;BME280;26987;59.928;30.306;2024-02-14T09:06:40;102312.56;;;-9.96;71.73
41254;BME280;26987;59.928;30.306;2024-02-14T09:09:08;102298.72;;;-9.96;71.56
41254;BME280;26987;59.928;30.306;2024-02-14T09:11:37;102305.88;;;-10.06;71.65
41254;BME280;26987;59.928;30.306;2024-02-14T09:14:05;102307.38;;;-9.96;72.71
41254;BME280;26987;59.928;30.306;2024-02-14T09:16:33;102306.31;;;-9.87;71.97
41254;BME280;26987;59.928;30.306;2024-02-14T09:19:08;102313.03;;;-9.78;71.58
41254;BME280;26987;59.928;30.306;2024-02-14T09:21:36;102320.84;;;-9.78;70.45
41254;BME280;26987;59.928;30.306;2024-02-14T09:24:05;102315.78;;;-9.84;71.00
41254;BME280;26987;59.928;30.306;2024-02-14T09:26:35;102319.97;;;-9.79;71.39
41254;BME280;26987;59.928;30.306;2024-02-14T09:29:04;102303.63;;;-9.82;71.20
41254;BME280;26987;59.928;30.306;2024-02-14T09:31:32;102311.00;;;-9.65;71.40
41254;BME280;26987;59.928;30.306;2024-02-14T09:34:00;102303.38;;;-9.71;71.34
41254;BME280;26987;59.928;30.306;2024-02-14T09:36:29;102326.50;;;-9.62;71.51
41254;BME280;26987;59.928;30.306;2024-02-14T09:38:57;102317.00;;;-9.62;71.37
41254;BME280;26987;59.928;30.306;2024-02-14T09:41:29;102311.63;;;-9.54;72.25
41254;BME280;26987;59.928;30.306;2024-02-14T09:44:00;102329.59;;;-9.44;72.29
41254;BME280;26987;59.928;30.306;2024-02-14T09:46:28;102302.03;;;-9.52;71.61
41254;BME280;26987;59.928;30.306;2024-02-14T09:48:58;102286.53;;;-9.55;70.97
41254;BME280;26987;59.928;30.306;2024-02-14T09:51:26;102319.75;;;-9.31;70.87
41254;BME280;26987;59.928;30.306;2024-02-14T09:53:59;102326.59;;;-9.29;72.02
41254;BME280;26987;59.928;30.306;2024-02-14T09:56:28;102319.69;;;-9.30;70.28
41254;BME280;26987;59.928;30.306;2024-02-14T09:58:58;102311.06;;;-9.32;70.85
41254;BME280;26987;59.928;30.306;2024-02-14T10:01:26;102325.47;;;-9.18;71.07
41254;BME280;26987;59.928;30.306;2024-02-14T10:03:54;102308.22;;;-9.21;70.19
41254;BME280;26987;59.928;30.306;2024-02-14T10:06:22;102304.00;;;-9.25;69.72
41254;BME280;26987;59.928;30.306;2024-02-14T10:08:51;102314.25;;;-9.19;70.47
41254;BME280;26987;59.928;30.306;2024-02-14T10:11:21;102313.53;;;-9.26;69.80
41254;BME280;26987;59.928;30.306;2024-02-14T10:13:49;102192.53;;;-10.07;70.70
41254;BME280;26987;59.928;30.306;2024-02-14T10:16:19;102307.81;;;-9.40;71.16
41254;BME280;26987;59.928;30.306;2024-02-14T10:18:47;102315.34;;;-9.28;71.94
41254;BME280;26987;59.928;30.306;2024-02-14T10:21:16;102309.22;;;-9.27;72.59
41254;BME280;26987;59.928;30.306;2024-02-14T10:23:45;102312.78;;;-9.29;73.39
41254;BME280;26987;59.928;30.306;2024-02-14T10:26:16;102317.06;;;-9.28;74.21
41254;BME280;26987;59.928;30.306;2024-02-14T10:28:45;102321.63;;;-9.38;75.02
41254;BME280;26987;59.928;30.306;2024-02-14T10:31:13;102306.50;;;-9.57;77.25
41254;BME280;26987;59.928;30.306;2024-02-14T10:33:41;102303.91;;;-9.57;78.50
41254;BME280;26987;59.928;30.306;2024-02-14T10:36:12;102325.22;;;-9.44;80.00
41254;BME280;26987;59.928;30.306;2024-02-14T10:38:40;102266.19;;;-9.73;81.29
41254;BME280;26987;59.928;30.306;2024-02-14T10:41:09;102321.66;;;-9.40;81.86
41254;BME280;26987;59.928;30.306;2024-02-14T10:43:40;102322.00;;;-9.54;82.79
41254;BME280;26987;59.928;30.306;2024-02-14T10:46:18;102323.75;;;-9.54;84.59
41254;BME280;26987;59.928;30.306;2024-02-14T10:48:47;102297.34;;;-9.73;85.82
41254;BME280;26987;59.928;30.306;2024-02-14T10:51:16;102324.69;;;-9.57;86.46
41254;BME280;26987;59.928;30.306;2024-02-14T10:53:46;102328.09;;;-9.55;87.39
41254;BME280;26987;59.928;30.306;2024-02-14T10:56:18;102320.34;;;-9.56;88.17
41254;BME280;26987;59.928;30.306;2024-02-14T10:58:47;102317.78;;;-9.58;89.02
41254;BME280;26987;59.928;30.306;2024-02-14T11:01:17;102329.66;;;-9.47;89.90
41254;BME280;26987;59.928;30.306;2024-02-14T11:03:46;102325.50;;;-9.55;90.06
41254;BME280;26987;59.928;30.306;2024-02-14T11:06:16;102324.81;;;-9.63;91.36
41254;BME280;26987;59.928;30.306;2024-02-14T11:08:55;102325.69;;;-9.63;91.49
41254;BME280;26987;59.928;30.306;2024-02-14T11:11:24;102305.44;;;-9.88;92.72
41254;BME280;26987;59.928;30.306;2024-02-14T11:13:53;102289.34;;;-10.02;93.66
41254;BME280;26987;59.928;30.306;2024-02-14T11:16:25;102320.75;;;-9.75;94.83
41254;BME280;26987;59.928;30.306;2024-02-14T11:19:05;102310.50;;;-9.81;95.25
41254;BME280;26987;59.928;30.306;2024-02-14T11:21:36;102209.94;;;-10.49;96.20
41254;BME280;26987;59.928;30.306;2024-02-14T11:24:05;102323.47;;;-9.80;96.23
41254;BME280;26987;59.928;30.306;2024-02-14T11:26:39;102322.69;;;-9.83;97.14
41254;BME280;26987;59.928;30.306;2024-02-14T11:29:07;102318.50;;;-9.91;97.85
41254;BME280;26987;59.928;30.306;2024-02-14T11:31:38;102307.41;;;-9.97;98.06
41254;BME280;26987;59.928;30.306;2024-02-14T11:34:07;102306.72;;;-10.06;98.60
41254;BME280;26987;59.928;30.306;2024-02-14T11:36:35;102327.41;;;-10.03;99.88
41254;BME280;26987;59.928;30.306;2024-02-14T11:39:04;102221.31;;;-10.55;100.00
41254;BME280;26987;59.928;30.306;2024-02-14T11:41:32;102322.94;;;-9.94;100.00
41254;BME280;26987;59.928;30.306;2024-02-14T11:44:01;102319.41;;;-9.92;100.00
41254;BME280;26987;59.928;30.306;2024-02-14T11:46:31;102301.41;;;-10.01;100.00
41254;BME280;26987;59.928;30.306;2024-02-14T11:49:02;102317.63;;;-9.90;100.00
41254;BME280;26987;59.928;30.306;2024-02-14T11:51:31;102298.00;;;-10.02;100.00
41254;BME280;26987;59.928;30.306;2024-02-14T11:54:00;102324.59;;;-9.92;100.00
41254;BME280;26987;59.928;30.306;2024-02-14T11:56:31;102321.97;;;-9.90;100.00
41254;BME280;26987;59.928;30.306;2024-02-14T11:59:00;102321.91;;;-9.87;100.00
41254;BME280;26987;59.928;30.306;2024-02-14T12:01:30;102313.91;;;-9.78;100.00
41254;BME280;26987;59.928;30.306;2024-02-14T12:04:00;102311.47;;;-9.85;100.00
41254;BME280;26987;59.928;30.306;2024-02-14T12:06:29;102301.94;;;-9.85;100.00
41254;BME280;26987;59.928;30.306;2024-02-14T12:08:58;102286.34;;;-9.83;100.00
41254;BME280;26987;59.928;30.306;2024-02-14T12:11:32;102305.81;;;-9.65;100.00
41254;BME280;26987;59.928;30.306;2024-02-14T12:14:01;102289.66;;;-9.78;100.00
41254;BME280;26987;59.928;30.306;2024-02-14T12:16:30;102291.19;;;-9.69;100.00
41254;BME280;26987;59.928;30.306;2024-02-14T12:19:07;102302.34;;;-9.64;100.00
41254;BME280;26987;59.928;30.306;2024-02-14T12:21:36;102275.84;;;-9.80;100.00
41254;BME280;26987;59.928;30.306;2024-02-14T12:24:06;102190.31;;;-10.23;100.00
41254;BME280;26987;59.928;30.306;2024-02-14T12:26:35;102293.75;;;-9.68;100.00
41254;BME280;26987;59.928;30.306;2024-02-14T12:29:04;102290.22;;;-9.65;100.00
41254;BME280;26987;59.928;30.306;2024-02-14T12:31:32;102262.00;;;-9.79;100.00
41254;BME280;26987;59.928;30.306;2024-02-14T12:34:02;102257.63;;;-9.79;100.00
41254;BME280;26987;59.928;30.306;2024-02-14T12:36:36;102266.97;;;-9.70;100.00
41254;BME280;26987;59.928;30.306;2024-02-14T12:39:19;102271.34;;;-9.72;100.00
41254;BME280;26987;59.928;30.306;2024-02-14T12:41:48;102260.06;;;-9.71;100.00
41254;BME280;26987;59.928;30.306;2024-02-14T12:44:22;102276.38;;;-9.64;100.00
41254;BME280;26987;59.928;30.306;2024-02-14T12:46:56;102276.38;;;-9.64;100.00
41254;BME280;26987;59.928;30.306;2024-02-14T12:49:27;102280.56;;;-9.58;100.00